createdAt,value
2022-10-25T00:00:01.393Z,19.00
2022-10-25T00:02:49.214Z,21.80
2022-10-25T00:05:17.091Z,15.60
2022-10-25T00:07:44.968Z,14.60
2022-10-25T00:10:13.170Z,17.30
2022-10-25T00:12:43.503Z,18.40
2022-10-25T00:15:14.370Z,19.70
2022-10-25T00:17:43.518Z,15.00
2022-10-25T00:20:12.743Z,15.00
2022-10-25T00:22:40.635Z,20.70
2022-10-25T00:25:09.358Z,17.20
2022-10-25T00:27:37.977Z,14.00
2022-10-25T00:30:07.245Z,16.50
2022-10-25T00:32:35.593Z,16.70
2022-10-25T00:35:04.163Z,16.00
2022-10-25T00:37:31.993Z,12.60
2022-10-25T00:39:59.724Z,20.80
2022-10-25T00:42:27.568Z,22.90
2022-10-25T00:45:01.890Z,19.20
2022-10-25T00:47:46.303Z,19.90
2022-10-25T00:50:34.837Z,14.80
2022-10-25T00:53:17.171Z,13.80
2022-10-25T00:55:51.365Z,13.40
2022-10-25T00:58:24.178Z,12.90
2022-10-25T01:00:51.893Z,11.00
2022-10-25T01:03:22.981Z,13.80
2022-10-25T01:05:51.968Z,12.60
2022-10-25T01:08:22.103Z,12.70
2022-10-25T01:10:49.986Z,12.60
2022-10-25T01:13:18.236Z,13.40
2022-10-25T01:15:53.331Z,14.30
2022-10-25T01:18:34.955Z,12.60
2022-10-25T01:21:33.806Z,12.20
2022-10-25T01:24:14.113Z,10.90
2022-10-25T01:26:41.878Z,12.50
2022-10-25T01:29:28.398Z,13.20
2022-10-25T01:32:18.198Z,13.30
2022-10-25T01:35:19.912Z,11.20
2022-10-25T01:37:48.045Z,14.40
2022-10-25T01:40:40.703Z,12.60
2022-10-25T01:43:17.874Z,20.40
2022-10-25T01:46:11.697Z,16.80
2022-10-25T01:48:50.334Z,19.40
2022-10-25T01:51:18.735Z,16.00
2022-10-25T01:53:52.330Z,15.60
2022-10-25T01:56:30.322Z,14.20
2022-10-25T01:59:24.529Z,13.20
2022-10-25T02:02:07.517Z,12.70
2022-10-25T02:04:48.535Z,14.30
2022-10-25T02:07:22.362Z,14.80
2022-10-25T02:10:03.376Z,11.50
2022-10-25T02:12:43.192Z,14.00
2022-10-25T02:15:27.701Z,10.30
2022-10-25T02:18:00.693Z,12.80
2022-10-25T02:20:32.351Z,9.60
2022-10-25T02:23:03.204Z,12.70
2022-10-25T02:25:35.806Z,12.00
2022-10-25T02:28:07.475Z,11.90
2022-10-25T02:30:38.456Z,10.00
2022-10-25T02:33:07.549Z,9.30
2022-10-25T02:35:35.623Z,11.30
2022-10-25T02:38:04.215Z,12.30
2022-10-25T02:40:32.263Z,11.60
2022-10-25T02:42:59.929Z,11.90
2022-10-25T02:45:27.930Z,13.10
2022-10-25T02:47:55.619Z,11.80
2022-10-25T02:50:23.357Z,13.10
2022-10-25T02:52:51.058Z,10.90
2022-10-25T02:55:18.915Z,10.40
2022-10-25T02:57:46.616Z,13.60
2022-10-25T03:00:15.008Z,12.90
2022-10-25T03:02:42.785Z,12.60
2022-10-25T03:05:10.731Z,10.70
2022-10-25T03:07:38.449Z,12.10
2022-10-25T03:10:07.188Z,13.40
2022-10-25T03:12:34.922Z,13.20
2022-10-25T03:15:02.979Z,11.60
2022-10-25T03:17:30.868Z,9.40
2022-10-25T03:19:58.574Z,10.30
2022-10-25T03:22:26.881Z,10.50
2022-10-25T03:24:54.595Z,9.30
2022-10-25T03:27:22.350Z,11.10
2022-10-25T03:29:50.027Z,11.00
2022-10-25T03:32:17.701Z,10.80
2022-10-25T03:34:45.411Z,10.20
2022-10-25T03:37:13.157Z,14.00
2022-10-25T03:39:41.083Z,12.80
2022-10-25T03:42:08.810Z,11.90
2022-10-25T03:44:36.534Z,9.50
2022-10-25T03:47:04.277Z,11.90
2022-10-25T03:49:32.014Z,10.40
2022-10-25T03:52:01.349Z,10.60
2022-10-25T03:54:33.311Z,10.30
2022-10-25T03:57:01.485Z,12.60
2022-10-25T03:59:29.427Z,11.30
2022-10-25T04:01:57.169Z,12.60
2022-10-25T04:04:25.082Z,11.00
2022-10-25T04:06:52.915Z,12.00
2022-10-25T04:09:21.059Z,10.80
2022-10-25T04:11:48.904Z,12.30
2022-10-25T04:14:16.648Z,12.60
2022-10-25T04:16:44.374Z,11.50
2022-10-25T04:19:12.162Z,17.90
2022-10-25T04:21:40.091Z,10.30
2022-10-25T04:24:08.497Z,11.10
2022-10-25T04:26:36.862Z,12.20
2022-10-25T04:29:05.710Z,13.10
2022-10-25T04:31:33.457Z,12.80
2022-10-25T04:34:01.178Z,11.90
2022-10-25T04:36:30.697Z,9.70
2022-10-25T04:38:58.964Z,9.90
2022-10-25T04:41:26.707Z,11.30
2022-10-25T04:43:54.464Z,10.10
2022-10-25T04:46:22.225Z,9.50
2022-10-25T04:48:50.076Z,11.70
2022-10-25T04:51:18.088Z,11.50
2022-10-25T04:53:45.911Z,10.80
2022-10-25T04:56:16.656Z,11.20
2022-10-25T04:58:44.366Z,13.00
2022-10-25T05:01:15.395Z,9.30
2022-10-25T05:03:43.526Z,12.00
2022-10-25T05:06:17.670Z,14.80
2022-10-25T05:08:48.272Z,13.90
2022-10-25T05:11:18.212Z,10.70
2022-10-25T05:13:46.261Z,12.00
2022-10-25T05:16:22.698Z,14.00
2022-10-25T05:18:55.378Z,12.60
2022-10-25T05:24:01.872Z,15.60
2022-10-25T05:26:31.229Z,20.30
2022-10-25T05:28:59.237Z,14.00
2022-10-25T05:31:30.147Z,12.70
2022-10-25T05:34:00.809Z,10.60
2022-10-25T05:36:29.696Z,10.70
2022-10-25T05:38:58.311Z,13.30
2022-10-25T05:41:26.032Z,19.40
2022-10-25T05:43:53.854Z,14.70
2022-10-25T05:46:23.760Z,9.30
2022-10-25T05:48:52.115Z,8.40
2022-10-25T05:51:38.526Z,11.30
2022-10-25T05:54:16.077Z,9.80
2022-10-25T05:56:43.999Z,9.40
2022-10-25T05:59:14.545Z,11.20
2022-10-25T06:01:45.270Z,10.40
2022-10-25T06:04:14.160Z,11.10
2022-10-25T06:06:44.311Z,11.50
2022-10-25T06:09:13.593Z,10.00
2022-10-25T06:11:41.444Z,12.50
2022-10-25T06:14:10.969Z,13.10
2022-10-25T06:16:39.133Z,13.20
2022-10-25T06:19:08.271Z,12.90
2022-10-25T06:21:37.131Z,13.30
2022-10-25T06:24:05.839Z,12.80
2022-10-25T06:26:33.580Z,14.00
2022-10-25T06:29:04.105Z,13.20
2022-10-25T06:31:33.612Z,11.10
2022-10-25T06:34:02.350Z,12.20
2022-10-25T06:36:31.538Z,9.90
2022-10-25T06:39:05.673Z,14.10
2022-10-25T06:41:37.349Z,14.10
2022-10-25T06:44:07.695Z,10.70
2022-10-25T06:47:04.261Z,10.80
2022-10-25T06:49:27.465Z,9.00
2022-10-25T06:51:55.279Z,14.30
2022-10-25T06:54:23.084Z,11.40
2022-10-25T06:56:50.848Z,10.70
2022-10-25T06:59:20.647Z,12.50
2022-10-25T07:01:48.722Z,11.30
2022-10-25T07:04:16.642Z,13.10
2022-10-25T07:06:44.422Z,14.80
2022-10-25T07:09:13.313Z,9.20
2022-10-25T07:11:41.917Z,9.80
2022-10-25T07:14:10.382Z,9.90
2022-10-25T07:16:38.237Z,12.60
2022-10-25T07:19:06.010Z,12.70
2022-10-25T07:21:34.712Z,9.90
2022-10-25T07:24:03.060Z,10.50
2022-10-25T07:26:33.654Z,11.70
2022-10-25T07:29:02.802Z,8.20
2022-10-25T07:31:34.354Z,11.70
2022-10-25T07:34:04.166Z,17.30
2022-10-25T07:36:31.918Z,10.50
2022-10-25T07:39:00.950Z,9.10
2022-10-25T07:41:29.130Z,11.20
2022-10-25T07:43:57.196Z,8.30
2022-10-25T07:46:25.317Z,7.80
2022-10-25T07:48:53.082Z,10.90
2022-10-25T07:51:20.969Z,8.90
2022-10-25T07:53:48.693Z,13.20
2022-10-25T07:56:22.414Z,11.70
2022-10-25T07:58:52.824Z,8.30
2022-10-25T08:01:23.232Z,7.70
2022-10-25T08:03:52.846Z,10.20
2022-10-25T08:06:22.304Z,7.90
2022-10-25T08:08:50.402Z,9.70
2022-10-25T08:11:19.287Z,9.30
2022-10-25T08:13:50.380Z,12.80
2022-10-25T08:16:18.742Z,10.60
2022-10-25T08:18:47.209Z,8.50
2022-10-25T08:21:16.040Z,9.50
2022-10-25T08:23:43.954Z,9.60
2022-10-25T08:26:11.745Z,13.30
2022-10-25T08:28:39.542Z,7.30
2022-10-25T08:31:07.396Z,9.50
2022-10-25T08:33:36.419Z,11.20
2022-10-25T08:36:04.441Z,9.60
2022-10-25T08:38:32.217Z,8.40
2022-10-25T08:41:18.457Z,9.20
2022-10-25T08:44:05.752Z,8.70
2022-10-25T08:46:36.368Z,6.00
2022-10-25T08:49:18.965Z,7.50
2022-10-25T08:51:50.750Z,10.10
2022-10-25T08:54:35.625Z,6.70
2022-10-25T08:57:27.469Z,10.10
2022-10-25T09:00:11.218Z,9.60
2022-10-25T09:02:52.991Z,9.20
2022-10-25T09:05:45.718Z,5.50
2022-10-25T09:08:38.241Z,9.00
2022-10-25T09:11:18.832Z,6.00
2022-10-25T09:14:12.265Z,8.90
2022-10-25T09:17:04.258Z,7.70
2022-10-25T09:19:39.198Z,8.20
2022-10-25T09:22:19.894Z,9.20
2022-10-25T09:25:06.257Z,8.20
2022-10-25T09:27:43.897Z,7.00
2022-10-25T09:30:12.994Z,6.30
2022-10-25T09:32:45.548Z,7.80
2022-10-25T09:35:33.279Z,10.40
2022-10-25T09:38:17.640Z,7.60
2022-10-25T09:41:10.843Z,10.40
2022-10-25T09:43:44.797Z,9.30
2022-10-25T09:47:10.460Z,7.60
2022-10-25T09:49:49.150Z,12.30
2022-10-25T09:52:30.251Z,11.10
2022-10-25T09:55:16.112Z,7.10
2022-10-25T09:57:44.320Z,8.50
2022-10-25T10:00:14.547Z,9.90
2022-10-25T10:02:42.896Z,11.90
2022-10-25T10:05:19.701Z,9.80
2022-10-25T10:07:49.379Z,8.50
2022-10-25T10:10:25.056Z,8.00
2022-10-25T10:13:14.206Z,10.10
2022-10-25T10:16:12.256Z,8.90
2022-10-25T10:18:41.326Z,8.70
2022-10-25T10:21:12.243Z,7.90
2022-10-25T10:23:53.455Z,8.80
2022-10-25T10:26:31.652Z,9.20
2022-10-25T10:29:17.579Z,10.30
2022-10-25T10:31:49.982Z,10.70
2022-10-25T10:34:31.424Z,10.00
2022-10-25T10:37:17.874Z,9.10
2022-10-25T10:39:51.737Z,10.30
2022-10-25T10:42:32.475Z,8.50
2022-10-25T10:45:07.983Z,13.50
2022-10-25T10:47:51.353Z,7.80
2022-10-25T10:50:25.875Z,10.30
2022-10-25T10:52:56.538Z,12.60
2022-10-25T10:55:36.348Z,8.40
2022-10-25T10:58:12.253Z,11.40
2022-10-25T11:00:40.504Z,6.50
2022-10-25T11:03:40.371Z,6.70
2022-10-25T11:06:16.027Z,6.80
2022-10-25T11:08:46.103Z,7.30
2022-10-25T11:11:22.247Z,7.70
2022-10-25T11:14:01.546Z,7.80
2022-10-25T11:16:35.395Z,6.00
2022-10-25T11:19:11.449Z,6.70
2022-10-25T11:22:04.574Z,7.40
2022-10-25T11:24:49.604Z,5.20
2022-10-25T11:27:49.635Z,5.80
2022-10-25T11:30:20.987Z,6.70
2022-10-25T11:33:07.868Z,5.20
2022-10-25T11:35:35.930Z,7.20
2022-10-25T11:38:20.451Z,4.90
2022-10-25T11:41:15.795Z,6.20
2022-10-25T11:46:52.474Z,5.40
2022-10-25T11:49:38.406Z,6.80
2022-10-25T11:52:32.844Z,7.40
2022-10-25T11:55:27.531Z,4.60
2022-10-25T11:58:05.537Z,9.80
2022-10-25T12:00:51.711Z,7.40
2022-10-25T12:04:00.779Z,8.40
2022-10-25T12:06:54.064Z,8.30
2022-10-25T12:09:50.546Z,7.10
2022-10-25T12:12:23.886Z,4.10
2022-10-25T12:14:58.356Z,5.10
2022-10-25T12:17:33.770Z,5.90
2022-10-25T12:20:06.494Z,5.40
2022-10-25T12:22:39.605Z,5.50
2022-10-25T12:25:33.475Z,7.20
2022-10-25T12:28:32.979Z,9.50
2022-10-25T12:31:07.244Z,6.90
2022-10-25T12:33:40.107Z,6.70
2022-10-25T12:36:21.042Z,6.80
2022-10-25T12:38:48.757Z,11.40
2022-10-25T12:41:23.221Z,9.40
2022-10-25T12:44:16.200Z,6.70
2022-10-25T12:47:03.059Z,7.00
2022-10-25T12:49:51.001Z,7.30
2022-10-25T12:52:23.679Z,6.90
2022-10-25T12:55:03.592Z,7.10
2022-10-25T12:57:59.918Z,6.60
2022-10-25T13:00:35.569Z,5.90
2022-10-25T13:03:40.520Z,6.70
2022-10-25T13:06:20.345Z,4.20
2022-10-25T13:08:49.247Z,6.30
2022-10-25T13:11:17.145Z,5.20
2022-10-25T13:13:51.804Z,6.90
2022-10-25T13:16:31.834Z,8.70
2022-10-25T13:19:53.964Z,11.40
2022-10-25T13:25:07.896Z,6.40
2022-10-25T13:27:37.013Z,8.50
2022-10-25T13:30:25.275Z,6.20
2022-10-25T13:33:26.721Z,11.60
2022-10-25T13:35:54.789Z,6.30
2022-10-25T13:38:29.395Z,6.60
2022-10-25T13:41:12.641Z,4.80
2022-10-25T13:43:59.686Z,10.90
2022-10-25T13:46:39.819Z,13.30
2022-10-25T13:49:42.118Z,7.60
2022-10-25T13:52:34.170Z,16.50
2022-10-25T13:55:06.254Z,12.20
2022-10-25T13:57:52.626Z,11.60
2022-10-25T14:00:32.311Z,6.30
2022-10-25T14:03:09.102Z,7.20
2022-10-25T14:05:54.183Z,11.10
2022-10-25T14:08:29.690Z,42.80
2022-10-25T14:11:07.490Z,14.20
2022-10-25T14:14:16.677Z,173.00
2022-10-25T14:17:03.670Z,41.00
2022-10-25T14:19:49.945Z,23.50
2022-10-25T14:22:27.794Z,14.40
2022-10-25T14:25:18.949Z,10.90
2022-10-25T14:27:46.767Z,9.40
2022-10-25T14:30:27.902Z,7.60
2022-10-25T14:32:57.174Z,7.20
2022-10-25T14:35:45.141Z,6.80
2022-10-25T14:38:17.613Z,7.10
2022-10-25T14:40:53.944Z,10.70
2022-10-25T14:43:23.487Z,12.10
2022-10-25T14:46:16.169Z,12.40
2022-10-25T14:48:49.040Z,14.90
2022-10-25T14:51:26.126Z,15.80
2022-10-25T14:54:06.482Z,12.20
2022-10-25T14:56:46.327Z,12.70
2022-10-25T14:59:27.901Z,15.50
2022-10-25T15:02:13.918Z,17.20
2022-10-25T15:04:47.797Z,12.00
2022-10-25T15:07:26.007Z,15.50
2022-10-25T15:09:56.678Z,10.30
2022-10-25T15:12:29.319Z,11.50
2022-10-25T15:15:19.170Z,11.90
2022-10-25T15:17:51.604Z,16.00
2022-10-25T15:20:19.295Z,15.20
2022-10-25T15:22:49.581Z,12.20
2022-10-25T15:25:28.747Z,10.00
2022-10-25T15:27:59.131Z,12.80
2022-10-25T15:30:37.199Z,15.00
2022-10-25T15:33:11.782Z,15.60
2022-10-25T15:35:49.554Z,12.70
2022-10-25T15:38:18.214Z,15.20
2022-10-25T15:40:47.585Z,18.90
2022-10-25T15:43:16.037Z,16.70
2022-10-25T15:45:44.155Z,18.20
2022-10-25T15:48:18.225Z,21.10
2022-10-25T15:50:57.141Z,22.60
2022-10-25T15:53:25.797Z,23.60
2022-10-25T15:55:53.764Z,24.80
2022-10-25T15:58:21.529Z,18.80
2022-10-25T16:00:52.269Z,27.80
2022-10-25T16:03:22.895Z,54.80
2022-10-25T16:05:52.367Z,56.20
2022-10-25T16:08:20.110Z,66.10
2022-10-25T16:10:48.195Z,70.40
2022-10-25T16:13:20.863Z,56.80
2022-10-25T16:15:48.637Z,43.80
2022-10-25T16:18:16.657Z,44.80
2022-10-25T16:20:44.490Z,44.50
2022-10-25T16:23:12.274Z,49.30
2022-10-25T16:25:40.094Z,56.80
2022-10-25T16:28:13.571Z,73.20
2022-10-25T16:30:43.102Z,59.00
2022-10-25T16:33:11.669Z,49.40
2022-10-25T16:35:39.514Z,55.30
2022-10-25T16:40:41.162Z,65.80
2022-10-25T16:43:12.406Z,64.30
2022-10-25T16:45:40.180Z,70.00
2022-10-25T16:48:07.935Z,71.10
2022-10-25T16:50:35.979Z,61.40
2022-10-25T16:53:09.327Z,64.40
2022-10-25T16:55:37.810Z,60.10
2022-10-25T16:58:05.622Z,57.30
2022-10-25T17:00:35.870Z,58.70
2022-10-25T17:03:04.358Z,58.00
2022-10-25T17:05:36.291Z,54.30
2022-10-25T17:08:04.061Z,45.70
2022-10-25T17:10:31.974Z,50.50
2022-10-25T17:13:03.582Z,45.60
2022-10-25T17:15:31.956Z,201.30
2022-10-25T17:17:59.740Z,211.00
2022-10-25T17:20:27.957Z,71.30
2022-10-25T17:22:56.401Z,77.70
2022-10-25T17:25:24.328Z,90.80
2022-10-25T17:27:53.693Z,80.00
2022-10-25T17:30:21.547Z,94.50
2022-10-25T17:32:50.149Z,81.90
2022-10-25T17:35:19.829Z,76.30
2022-10-25T17:37:48.409Z,255.40
2022-10-25T17:40:16.277Z,139.50
2022-10-25T17:42:44.056Z,182.60
2022-10-25T17:45:12.409Z,120.20
2022-10-25T17:47:42.664Z,72.70
2022-10-25T17:50:12.791Z,69.30
2022-10-25T17:52:42.437Z,48.30
2022-10-25T17:55:11.373Z,104.00
2022-10-25T17:57:39.226Z,46.60
2022-10-25T18:00:08.643Z,276.60
2022-10-25T18:02:50.609Z,342.50
2022-10-25T18:05:21.342Z,97.20
2022-10-25T18:07:49.945Z,567.00
2022-10-25T18:10:19.169Z,278.00
2022-10-25T18:12:47.570Z,90.70
2022-10-25T18:15:15.622Z,61.30
2022-10-25T18:17:46.823Z,26.10
2022-10-25T18:20:15.630Z,135.90
2022-10-25T18:22:43.526Z,68.00
2022-10-25T18:25:11.706Z,144.30
2022-10-25T18:27:39.448Z,91.30
2022-10-25T18:30:08.195Z,77.70
2022-10-25T18:32:36.229Z,54.30
2022-10-25T18:35:04.520Z,22.60
2022-10-25T18:37:32.418Z,42.20
2022-10-25T18:40:00.301Z,153.90
2022-10-25T18:42:28.260Z,42.40
2022-10-25T18:44:56.126Z,53.90
2022-10-25T18:47:24.097Z,29.60
2022-10-25T18:49:51.964Z,53.30
2022-10-25T18:52:20.142Z,45.80
2022-10-25T18:54:48.511Z,39.90
2022-10-25T18:57:17.818Z,45.70
2022-10-25T18:59:45.521Z,76.00
2022-10-25T19:02:13.523Z,153.60
2022-10-25T19:04:41.686Z,65.40
2022-10-25T19:07:09.699Z,49.60
2022-10-25T19:09:37.668Z,55.30
2022-10-25T19:12:05.742Z,29.80
2022-10-25T19:14:33.606Z,62.90
2022-10-25T19:17:01.373Z,63.50
2022-10-25T19:19:29.238Z,36.90
2022-10-25T19:21:58.478Z,53.30
2022-10-25T19:24:26.305Z,32.00
2022-10-25T19:26:54.071Z,90.10
2022-10-25T19:29:22.043Z,56.80
2022-10-25T19:31:51.994Z,48.50
2022-10-25T19:34:19.823Z,108.80
2022-10-25T19:36:48.336Z,124.90
2022-10-25T19:39:16.171Z,55.70
2022-10-25T19:41:43.937Z,187.90
2022-10-25T19:44:11.905Z,60.00
2022-10-25T19:46:39.671Z,136.80
2022-10-25T19:49:10.508Z,81.60
2022-10-25T19:51:38.236Z,96.30
2022-10-25T19:54:06.141Z,160.90
2022-10-25T19:56:38.822Z,95.40
2022-10-25T19:59:07.315Z,93.80
2022-10-25T20:01:35.162Z,200.50
2022-10-25T20:04:03.448Z,135.30
2022-10-25T20:06:33.594Z,137.00
2022-10-25T20:09:02.315Z,114.20
2022-10-25T20:11:32.478Z,97.00
2022-10-25T20:14:02.029Z,54.00
2022-10-25T20:16:29.929Z,44.80
2022-10-25T20:19:00.847Z,39.60
2022-10-25T20:21:34.596Z,24.60
2022-10-25T20:24:08.507Z,35.20
2022-10-25T20:26:41.911Z,27.50
2022-10-25T20:29:18.498Z,18.30
2022-10-25T20:31:52.180Z,45.80
2022-10-25T20:34:20.751Z,81.60
2022-10-25T20:36:49.054Z,587.20
2022-10-25T20:39:16.910Z,222.10
2022-10-25T20:41:46.020Z,297.20
2022-10-25T20:44:14.874Z,133.30
2022-10-25T20:46:43.470Z,148.40
2022-10-25T20:49:11.499Z,147.40
2022-10-25T20:51:39.399Z,60.90
2022-10-25T20:54:09.832Z,70.40
2022-10-25T20:56:39.634Z,36.00
2022-10-25T20:59:08.861Z,51.70
2022-10-25T21:01:36.987Z,53.00
2022-10-25T21:04:05.206Z,74.70
2022-10-25T21:06:33.307Z,53.90
2022-10-25T21:09:01.247Z,29.80
2022-10-25T21:11:29.317Z,29.20
2022-10-25T21:13:57.084Z,61.10
2022-10-25T21:16:24.954Z,27.80
2022-10-25T21:18:52.818Z,25.30
2022-10-25T21:21:21.207Z,83.80
2022-10-25T21:23:55.209Z,35.10
2022-10-25T21:26:23.390Z,30.40
2022-10-25T21:28:51.113Z,54.50
2022-10-25T21:31:18.914Z,34.20
2022-10-25T21:33:50.043Z,115.10
2022-10-25T21:36:21.012Z,82.50
2022-10-25T21:38:49.516Z,107.00
2022-10-25T21:41:20.924Z,38.60
2022-10-25T21:43:50.693Z,25.20
2022-10-25T21:46:20.777Z,38.50
2022-10-25T21:48:50.770Z,31.10
2022-10-25T21:51:20.717Z,28.70
2022-10-25T21:53:48.650Z,25.60
2022-10-25T21:56:18.583Z,33.40
2022-10-25T21:58:49.061Z,28.30
2022-10-25T22:01:20.952Z,22.70
2022-10-25T22:03:49.181Z,22.90
2022-10-25T22:06:20.210Z,19.60
2022-10-25T22:08:49.232Z,20.60
2022-10-25T22:11:26.260Z,19.10
2022-10-25T22:13:59.860Z,13.70
2022-10-25T22:16:29.059Z,14.70
2022-10-25T22:19:08.848Z,16.00
2022-10-25T22:21:38.514Z,18.00
2022-10-25T22:24:08.573Z,13.60
2022-10-25T22:26:38.160Z,14.40
2022-10-25T22:29:06.762Z,12.40
2022-10-25T22:31:34.574Z,14.60
2022-10-25T22:34:05.322Z,15.50
2022-10-25T22:36:42.450Z,12.10
2022-10-25T22:39:10.578Z,13.90
2022-10-25T22:41:38.478Z,16.30
2022-10-25T22:44:06.423Z,16.70
2022-10-25T22:46:35.934Z,16.30
2022-10-25T22:49:08.825Z,15.40
2022-10-25T22:51:38.330Z,19.40
2022-10-25T22:54:06.391Z,18.00
2022-10-25T22:56:34.598Z,20.80
2022-10-25T22:59:05.857Z,17.40
2022-10-25T23:01:36.274Z,22.30
2022-10-25T23:04:09.123Z,23.40
2022-10-25T23:06:39.591Z,21.60
2022-10-25T23:09:10.052Z,24.40
2022-10-25T23:11:40.767Z,22.10
2022-10-25T23:14:13.485Z,23.50
2022-10-25T23:16:46.233Z,23.20
2022-10-25T23:19:14.503Z,25.00
2022-10-25T23:21:42.239Z,23.00
2022-10-25T23:24:10.346Z,22.20
2022-10-25T23:26:38.676Z,21.20
2022-10-25T23:29:06.489Z,25.20
2022-10-25T23:31:34.336Z,25.40
2022-10-25T23:34:02.116Z,26.00
2022-10-25T23:36:37.708Z,26.40
2022-10-25T23:39:07.777Z,24.10
2022-10-25T23:41:35.673Z,25.40
2022-10-25T23:44:03.855Z,28.50
2022-10-25T23:46:31.645Z,31.50
2022-10-25T23:48:59.367Z,33.50
2022-10-25T23:51:27.145Z,29.70
2022-10-25T23:53:54.837Z,26.50
2022-10-25T23:56:22.602Z,27.30
2022-10-25T23:58:53.805Z,24.50
